Vir Savarkar International Airport
VOPB : now visible

Airfield :











YOU CAN JOIN US ON...

 
LOGIN :

Register | Disclaimer

   EN    FR    IT 

 









Legend :    VFR   Marginal VFR   IFR   Intensive IFR   Very Intensive IFR
Visi :
Ceiling :
>= 8 km
>= 3000ft
5 to 8 km
1000 to 3000 ft
1500m to 5 km
500 to 1000 ft
800 to 1500m
200 to 500 ft
< 800m
< 200 ft
Symbols :   Thunderstorms  Fog  Heavy snow  Heavy precipitations  Wind > 20 kt






- Airport Elevation : 14 ft
- IATA code : IXZ


VOPB - Vir Savarkar International

CURRENT METAR :
  • 231330Z 27004KT 5000 -RA SCT012 OVC080 26/24 Q1003 TEMPO 2700 RA

EXPIRED METARs :
  • 231300Z 25012KT 3500 RA SCT010 OVC080 25/24 Q1003 TEMPO 2700 RA
  • 231230Z 22013KT 3500 -RA SCT010 OVC080 29/26 Q1003 TEMPO 5000 -RA DZ
  • 231200Z 22007KT 3000 RA SCT012 OVC080 29/26 Q1002 TEMPO 1400 +RA
  • 231130Z 23008KT 3500 RA SCT012 OVC080 29/26 Q1002 TEMPO 2000 SHRA
  • 231100Z 23008KT 6000 DZ SCT014 OVC080 29/26 Q1002 NOSIG
  • 231030Z 23010KT 6000 DZ SCT012 SCT016 OVC080 29/26 Q1001 TEMPO 4000 -RA
  • 231000Z 24010KT 5000 DZ SCT012 SCT016 OVC080 29/26 Q1001 TEMPO 4000 -RA
  • 230930Z 24010KT 5000 DZ SCT012 SCT016 OVC080 29/26 Q1001 TEMPO 4000 -RA

TAF TAF VOPB
Valid from the 23 at 12:00 until the 23 at 21:00 UTC


231100Z 2312/2321 24010KT 5000 -RA/DZ SCT014 OVC080
TEMPO 2315/2317 23010G20KT 3000 TSRA RA FEW008 SCT012 OVC080
BECMG 2318/2320 VRB02KT 5000 BR
VOMF FIR / Asia



MET'MAP, your aeronautical weather chart ! - Copyright ORBIFLY December 2007 - Disclaimer

ORBIFLY MET'MAP TEAM :

Programming & Development : Alexandra Zaïnal
Original concept : Baudouin d'Aumeries
Technical & hardware support : Manuel Goepfert
Assistance : Marc-Olivier Méhu




SOURCES & CREDITS :

   NOAA       Earth
Advisory